createdAt,value
2019-05-11T00:03:20.501Z,66.73
2019-05-11T00:08:24.731Z,68.77
2019-05-11T00:13:28.789Z,77.33
2019-05-11T00:18:32.889Z,76.90
2019-05-11T00:23:37.116Z,77.37
2019-05-11T00:28:41.142Z,75.63
2019-05-11T00:33:45.262Z,78.10
2019-05-11T00:38:49.166Z,65.93
2019-05-11T00:43:53.221Z,62.33
2019-05-11T00:48:57.251Z,67.13
2019-05-11T00:54:01.267Z,60.87
2019-05-11T00:59:19.858Z,57.37
2019-05-11T01:04:11.488Z,68.63
2019-05-11T01:09:15.887Z,75.03
2019-05-11T01:14:20.100Z,78.17
2019-05-11T01:19:24.176Z,81.53
2019-05-11T01:24:28.189Z,91.67
2019-05-11T01:29:32.520Z,103.73
2019-05-11T01:34:36.649Z,94.13
2019-05-11T01:39:40.785Z,83.10
2019-05-11T01:44:45.322Z,70.17
2019-05-11T01:49:49.758Z,79.73
2019-05-11T01:54:53.903Z,80.87
2019-05-11T01:59:58.114Z,73.00
2019-05-11T02:05:20.478Z,69.83
2019-05-11T02:10:25.638Z,67.13
2019-05-11T02:15:29.652Z,64.30
2019-05-11T02:20:33.891Z,66.20
2019-05-11T02:25:37.972Z,69.33
2019-05-11T02:30:42.038Z,64.43
2019-05-11T02:35:46.075Z,67.47
2019-05-11T02:40:50.105Z,64.03
2019-05-11T02:45:54.112Z,70.67
2019-05-11T02:51:00.199Z,68.13
2019-05-11T02:56:04.734Z,76.63
2019-05-11T03:01:08.964Z,73.90
2019-05-11T03:06:14.122Z,58.73
2019-05-11T03:11:18.141Z,58.87
2019-05-11T03:16:22.169Z,53.13
2019-05-11T03:21:26.187Z,50.53
2019-05-11T03:26:30.230Z,47.23
2019-05-11T03:31:34.245Z,44.57
2019-05-11T03:36:38.334Z,47.77
2019-05-11T03:41:42.403Z,55.10
2019-05-11T03:46:46.421Z,59.73
2019-05-11T03:51:50.453Z,51.40
2019-05-11T03:56:54.327Z,47.23
2019-05-11T04:01:58.645Z,48.33
2019-05-11T04:07:02.844Z,46.37
2019-05-11T04:12:06.864Z,46.93
2019-05-11T04:17:10.888Z,48.10
2019-05-11T04:22:14.912Z,49.70
2019-05-11T04:27:19.772Z,44.53
2019-05-11T04:32:24.312Z,45.77
2019-05-11T04:37:28.181Z,52.93
2019-05-11T04:42:32.353Z,47.43
2019-05-11T04:47:37.504Z,45.27
2019-05-11T04:52:41.640Z,53.97
2019-05-11T04:57:45.861Z,51.27
2019-05-11T05:02:50.303Z,50.10
2019-05-11T05:08:08.683Z,58.43
2019-05-11T05:13:09.966Z,53.37
2019-05-11T05:18:06.074Z,56.67
2019-05-11T05:23:09.990Z,53.83
2019-05-11T05:28:14.013Z,58.47
2019-05-11T05:33:18.038Z,47.73
2019-05-11T05:38:22.179Z,50.33
2019-05-11T05:43:28.571Z,45.73
2019-05-11T05:48:32.679Z,49.17
2019-05-11T05:53:36.907Z,47.80
2019-05-11T05:58:40.862Z,45.80
2019-05-11T06:03:45.893Z,43.23
2019-05-11T06:08:50.117Z,44.00
2019-05-11T06:13:54.135Z,46.83
2019-05-11T06:18:58.293Z,42.05
2019-05-11T06:24:06.715Z,44.27
2019-05-11T06:29:08.388Z,39.65
2019-05-11T06:34:12.300Z,37.95
2019-05-11T06:39:16.740Z,38.48
2019-05-11T06:44:20.860Z,37.05
2019-05-11T06:49:25.024Z,36.23
2019-05-11T06:54:29.045Z,35.25
2019-05-11T06:59:33.058Z,36.55
2019-05-11T07:04:36.972Z,35.17
2019-05-11T07:09:41.002Z,35.17
2019-05-11T07:14:45.439Z,36.70
2019-05-11T07:19:49.348Z,30.30
2019-05-11T07:24:53.265Z,32.42
2019-05-11T07:29:57.246Z,27.95
2019-05-11T07:35:01.242Z,23.35
2019-05-11T07:40:08.108Z,23.85
2019-05-11T07:45:12.557Z,23.42
2019-05-11T07:50:18.137Z,24.45
2019-05-11T07:55:22.281Z,22.45
2019-05-11T08:00:28.011Z,20.48
2019-05-11T08:05:31.839Z,20.25
2019-05-11T08:10:35.808Z,22.52
2019-05-11T08:15:40.132Z,18.25
2019-05-11T08:20:44.084Z,17.05
2019-05-11T08:25:48.603Z,15.85
2019-05-11T08:30:52.729Z,15.28
2019-05-11T08:35:58.258Z,17.20
2019-05-11T08:41:02.364Z,17.87
2019-05-11T08:46:08.205Z,15.13
2019-05-11T08:51:12.380Z,15.20
2019-05-11T08:56:18.661Z,10.72
2019-05-11T09:01:21.847Z,13.48
2019-05-11T09:06:28.227Z,11.08
2019-05-11T09:11:32.431Z,14.47
2019-05-11T09:16:38.326Z,13.08
2019-05-11T09:21:42.585Z,11.97
2019-05-11T09:26:47.910Z,9.25
2019-05-11T09:31:52.138Z,7.28
2019-05-11T09:36:58.447Z,8.68
2019-05-11T09:42:01.975Z,9.35
2019-05-11T09:47:08.117Z,8.03
2019-05-11T09:52:11.433Z,7.12
2019-05-11T09:57:15.357Z,8.43
2019-05-11T10:02:21.142Z,9.18
2019-05-11T10:07:24.858Z,8.08
2019-05-11T10:12:28.895Z,8.85
2019-05-11T10:17:32.827Z,8.50
2019-05-11T10:22:38.448Z,6.55
2019-05-11T10:27:42.485Z,22.58
2019-05-11T10:32:48.476Z,6.72
2019-05-11T10:37:52.871Z,6.70
2019-05-11T10:42:58.748Z,6.90
2019-05-11T10:48:02.537Z,7.95
2019-05-11T10:53:08.012Z,7.75
2019-05-11T10:58:12.085Z,11.83
2019-05-11T11:03:17.928Z,10.72
2019-05-11T11:08:21.568Z,8.53
2019-05-11T11:13:28.123Z,7.35
2019-05-11T11:18:31.755Z,6.30
2019-05-11T11:23:35.692Z,5.85
2019-05-11T11:28:40.565Z,5.95
2019-05-11T11:33:44.469Z,6.05
2019-05-11T11:38:48.730Z,6.50
2019-05-11T11:43:52.679Z,7.60
2019-05-11T11:48:58.132Z,6.97
2019-05-11T11:54:02.153Z,7.97
2019-05-11T11:59:08.531Z,6.33
2019-05-11T12:04:12.742Z,6.28
2019-05-11T12:09:18.158Z,6.00
2019-05-11T12:14:22.333Z,6.45
2019-05-11T12:19:27.920Z,6.33
2019-05-11T12:24:31.965Z,4.45
2019-05-11T12:29:35.859Z,7.42
2019-05-11T12:34:39.751Z,4.08
2019-05-11T12:39:43.650Z,4.97
2019-05-11T12:44:48.274Z,10.18
2019-05-11T12:49:52.276Z,11.18
2019-05-11T12:54:58.199Z,8.70
2019-05-11T13:00:01.991Z,7.00
2019-05-11T13:05:08.710Z,6.75
2019-05-11T13:10:14.175Z,10.75
2019-05-11T13:15:18.279Z,12.55
2019-05-11T13:20:22.163Z,6.97
2019-05-11T13:25:28.088Z,29.32
2019-05-11T13:30:31.647Z,14.65
2019-05-11T13:35:37.566Z,8.03
2019-05-11T13:40:41.312Z,7.78
2019-05-11T13:45:47.783Z,9.73
2019-05-11T13:50:51.414Z,13.22
2019-05-11T13:55:55.647Z,8.13
2019-05-11T14:00:59.857Z,8.25
2019-05-11T14:06:04.106Z,5.87
2019-05-11T14:11:08.577Z,7.47
2019-05-11T14:16:12.874Z,9.43
2019-05-11T14:21:18.596Z,6.58
2019-05-11T14:26:23.002Z,7.67
2019-05-11T14:31:28.055Z,12.55
2019-05-11T14:36:32.253Z,6.05
2019-05-11T14:41:38.070Z,6.28
2019-05-11T14:46:42.680Z,10.43
2019-05-11T14:51:48.472Z,10.93
2019-05-11T14:56:52.680Z,6.05
2019-05-11T15:01:58.302Z,7.60
2019-05-11T15:07:02.356Z,8.33
2019-05-11T15:12:08.542Z,9.48
2019-05-11T15:17:11.818Z,14.43
2019-05-11T15:22:17.928Z,8.35
2019-05-11T15:27:22.570Z,12.88
2019-05-11T15:32:28.523Z,12.93
2019-05-11T15:37:32.150Z,8.45
2019-05-11T15:42:37.697Z,10.20
2019-05-11T15:47:42.088Z,11.33
2019-05-11T15:52:48.513Z,6.60
2019-05-11T15:57:52.072Z,8.55
2019-05-11T16:02:57.844Z,16.75
2019-05-11T16:08:02.058Z,11.73
2019-05-11T16:13:06.067Z,6.58
2019-05-11T16:18:09.942Z,9.50
2019-05-11T16:23:14.457Z,14.05
2019-05-11T16:28:19.285Z,13.15
2019-05-11T16:33:23.466Z,14.35
2019-05-11T16:38:28.987Z,13.75
2019-05-11T16:43:33.147Z,10.93
2019-05-11T16:48:38.296Z,18.40
2019-05-11T16:53:47.934Z,23.62
2019-05-11T16:58:54.426Z,12.15
2019-05-11T17:03:57.856Z,7.58
2019-05-11T17:09:01.925Z,7.65
2019-05-11T17:14:08.077Z,6.55
2019-05-11T17:19:11.837Z,12.03
2019-05-11T17:24:16.012Z,10.63
2019-05-11T17:29:20.233Z,9.13
2019-05-11T17:34:24.122Z,48.33
2019-05-11T17:39:28.286Z,11.73
2019-05-11T17:44:32.477Z,7.72
2019-05-11T17:49:38.407Z,11.30
2019-05-11T17:54:42.456Z,8.50
2019-05-11T17:59:47.629Z,6.12
2019-05-11T18:04:51.740Z,7.47
2019-05-11T18:09:55.912Z,9.98
2019-05-11T18:14:59.991Z,10.38
2019-05-11T18:20:14.738Z,9.05
2019-05-11T18:25:13.934Z,8.43
2019-05-11T18:30:17.095Z,7.17
2019-05-11T18:35:21.013Z,12.23
2019-05-11T18:40:24.959Z,28.02
2019-05-11T18:45:29.300Z,22.22
2019-05-11T18:50:34.029Z,17.32
2019-05-11T18:55:38.286Z,15.25
2019-05-11T19:00:42.594Z,24.40
2019-05-11T19:05:48.110Z,29.87
2019-05-11T19:10:52.258Z,46.13
2019-05-11T19:15:58.194Z,23.42
2019-05-11T19:21:01.807Z,47.38
2019-05-11T19:26:05.700Z,26.77
2019-05-11T19:31:11.146Z,19.45
2019-05-11T19:36:15.535Z,17.82
2019-05-11T19:41:19.491Z,24.75
2019-05-11T19:46:23.453Z,22.32
2019-05-11T19:51:29.096Z,24.32
2019-05-11T19:56:34.412Z,22.13
2019-05-11T20:01:38.574Z,21.55
2019-05-11T20:06:42.452Z,25.68
2019-05-11T20:11:47.649Z,19.07
2019-05-11T20:16:53.641Z,23.52
2019-05-11T20:21:57.881Z,21.50
2019-05-11T20:27:01.974Z,19.37
2019-05-11T20:32:08.052Z,23.07
2019-05-11T20:37:11.404Z,26.65
2019-05-11T20:42:15.286Z,22.32
2019-05-11T20:47:19.437Z,23.65
2019-05-11T20:52:23.554Z,48.58
2019-05-11T20:57:28.454Z,30.67
2019-05-11T21:02:32.556Z,31.90
2019-05-11T21:07:38.924Z,32.37
2019-05-11T21:12:42.203Z,31.27
2019-05-11T21:17:50.242Z,35.10
2019-05-11T21:22:52.000Z,33.90
2019-05-11T21:27:57.767Z,41.03
2019-05-11T21:33:01.412Z,35.07
2019-05-11T21:38:05.296Z,27.53
2019-05-11T21:43:09.169Z,29.40
2019-05-11T21:48:13.387Z,24.67
2019-05-11T21:53:18.440Z,24.17
2019-05-11T21:58:22.767Z,24.37
2019-05-11T22:03:28.074Z,25.57
2019-05-11T22:08:32.250Z,26.73
2019-05-11T22:13:37.864Z,28.97
2019-05-11T22:18:42.192Z,31.63
2019-05-11T22:23:47.478Z,28.63
2019-05-11T22:28:51.871Z,26.83
2019-05-11T22:33:58.154Z,31.90
2019-05-11T22:39:01.780Z,34.47
2019-05-11T22:44:07.763Z,28.63
2019-05-11T22:49:11.456Z,28.37
2019-05-11T22:54:18.422Z,29.27
2019-05-11T22:59:21.866Z,27.07
2019-05-11T23:04:28.618Z,23.90
2019-05-11T23:09:32.286Z,26.37
2019-05-11T23:14:37.698Z,23.70
2019-05-11T23:19:42.179Z,26.53
2019-05-11T23:24:48.026Z,27.07
2019-05-11T23:29:52.178Z,34.03
2019-05-11T23:34:56.506Z,34.80
2019-05-11T23:40:00.728Z,33.77
2019-05-11T23:45:08.388Z,29.23
2019-05-11T23:50:13.192Z,28.77
2019-05-11T23:55:19.079Z,24.87
